sensor_id;sensor_type;location;lat;lon;timestamp;temperature;humidity
69009;SHT31;56065;52.472;13.380;2023-04-03T00:00:05;2.64;72.92
69009;SHT31;56065;52.472;13.380;2023-04-03T00:02:32;2.60;72.70
69009;SHT31;56065;52.472;13.380;2023-04-03T00:04:57;2.53;73.40
69009;SHT31;56065;52.472;13.380;2023-04-03T00:07:22;2.60;72.86
69009;SHT31;56065;52.472;13.380;2023-04-03T00:09:48;2.57;72.89
69009;SHT31;56065;52.472;13.380;2023-04-03T00:12:13;2.56;73.04
69009;SHT31;56065;52.472;13.380;2023-04-03T00:14:38;2.61;73.24
69009;SHT31;56065;52.472;13.380;2023-04-03T00:17:04;2.58;73.08
69009;SHT31;56065;52.472;13.380;2023-04-03T00:19:30;2.58;73.07
69009;SHT31;56065;52.472;13.380;2023-04-03T00:21:55;2.56;73.09
69009;SHT31;56065;52.472;13.380;2023-04-03T00:24:20;2.60;73.01
69009;SHT31;56065;52.472;13.380;2023-04-03T00:26:46;2.56;72.83
69009;SHT31;56065;52.472;13.380;2023-04-03T00:29:11;2.56;72.97
69009;SHT31;56065;52.472;13.380;2023-04-03T00:31:36;2.56;72.63
69009;SHT31;56065;52.472;13.380;2023-04-03T00:34:02;2.50;72.56
69009;SHT31;56065;52.472;13.380;2023-04-03T00:36:27;2.50;72.67
69009;SHT31;56065;52.472;13.380;2023-04-03T00:38:52;2.51;72.25
69009;SHT31;56065;52.472;13.380;2023-04-03T00:41:18;2.50;72.89
69009;SHT31;56065;52.472;13.380;2023-04-03T00:43:43;2.48;72.56
69009;SHT31;56065;52.472;13.380;2023-04-03T00:46:09;2.41;72.44
69009;SHT31;56065;52.472;13.380;2023-04-03T00:48:39;2.44;72.66
69009;SHT31;56065;52.472;13.380;2023-04-03T00:51:07;2.43;72.50
69009;SHT31;56065;52.472;13.380;2023-04-03T00:53:56;2.40;72.55
69009;SHT31;56065;52.472;13.380;2023-04-03T00:56:25;2.36;72.88
69009;SHT31;56065;52.472;13.380;2023-04-03T00:58:59;2.37;72.66
69009;SHT31;56065;52.472;13.380;2023-04-03T01:01:27;2.36;72.56
69009;SHT31;56065;52.472;13.380;2023-04-03T01:03:53;2.34;72.60
69009;SHT31;56065;52.472;13.380;2023-04-03T01:06:30;2.29;72.71
69009;SHT31;56065;52.472;13.380;2023-04-03T01:08:59;2.23;72.93
69009;SHT31;56065;52.472;13.380;2023-04-03T01:11:24;2.26;72.99
69009;SHT31;56065;52.472;13.380;2023-04-03T01:13:50;2.24;72.84
69009;SHT31;56065;52.472;13.380;2023-04-03T01:16:15;2.19;73.00
69009;SHT31;56065;52.472;13.380;2023-04-03T01:18:41;2.23;73.00
69009;SHT31;56065;52.472;13.380;2023-04-03T01:24:10;2.26;73.07
69009;SHT31;56065;52.472;13.380;2023-04-03T01:26:37;2.22;73.05
69009;SHT31;56065;52.472;13.380;2023-04-03T01:29:03;2.23;73.08
69009;SHT31;56065;52.472;13.380;2023-04-03T01:34:00;2.22;72.76
69009;SHT31;56065;52.472;13.380;2023-04-03T01:36:28;2.23;73.29
69009;SHT31;56065;52.472;13.380;2023-04-03T01:38:55;2.26;73.21
69009;SHT31;56065;52.472;13.380;2023-04-03T01:41:21;2.26;72.61
69009;SHT31;56065;52.472;13.380;2023-04-03T01:43:47;2.22;73.29
69009;SHT31;56065;52.472;13.380;2023-04-03T01:46:13;2.23;73.26
69009;SHT31;56065;52.472;13.380;2023-04-03T01:48:38;2.20;73.37
69009;SHT31;56065;52.472;13.380;2023-04-03T01:51:04;2.24;73.41
69009;SHT31;56065;52.472;13.380;2023-04-03T01:53:29;2.23;73.35
69009;SHT31;56065;52.472;13.380;2023-04-03T01:55:54;2.23;73.46
69009;SHT31;56065;52.472;13.380;2023-04-03T01:58:20;2.26;73.31
69009;SHT31;56065;52.472;13.380;2023-04-03T02:00:45;2.27;73.09
69009;SHT31;56065;52.472;13.380;2023-04-03T02:03:10;2.20;73.78
69009;SHT31;56065;52.472;13.380;2023-04-03T02:05:36;2.20;73.45
69009;SHT31;56065;52.472;13.380;2023-04-03T02:08:01;2.23;73.50
69009;SHT31;56065;52.472;13.380;2023-04-03T02:10:26;2.20;73.82
69009;SHT31;56065;52.472;13.380;2023-04-03T02:12:52;2.17;73.90
69009;SHT31;56065;52.472;13.380;2023-04-03T02:15:18;2.13;74.02
69009;SHT31;56065;52.472;13.380;2023-04-03T02:17:43;2.12;73.83
69009;SHT31;56065;52.472;13.380;2023-04-03T02:20:09;2.09;73.75
69009;SHT31;56065;52.472;13.380;2023-04-03T02:22:35;2.09;74.18
69009;SHT31;56065;52.472;13.380;2023-04-03T02:25:01;2.06;74.31
69009;SHT31;56065;52.472;13.380;2023-04-03T02:27:26;2.06;74.30
69009;SHT31;56065;52.472;13.380;2023-04-03T02:29:52;2.09;73.99
69009;SHT31;56065;52.472;13.380;2023-04-03T02:32:17;2.06;74.44
69009;SHT31;56065;52.472;13.380;2023-04-03T02:34:43;2.05;74.09
69009;SHT31;56065;52.472;13.380;2023-04-03T02:37:08;2.03;74.58
69009;SHT31;56065;52.472;13.380;2023-04-03T02:39:34;2.05;74.59
69009;SHT31;56065;52.472;13.380;2023-04-03T02:41:59;2.09;74.65
69009;SHT31;56065;52.472;13.380;2023-04-03T02:44:25;2.09;74.71
69009;SHT31;56065;52.472;13.380;2023-04-03T02:46:50;2.12;74.39
69009;SHT31;56065;52.472;13.380;2023-04-03T02:49:16;2.07;74.32
69009;SHT31;56065;52.472;13.380;2023-04-03T02:51:41;2.12;74.49
69009;SHT31;56065;52.472;13.380;2023-04-03T02:54:07;2.07;74.50
69009;SHT31;56065;52.472;13.380;2023-04-03T02:56:32;2.12;74.85
69009;SHT31;56065;52.472;13.380;2023-04-03T02:58:58;2.12;74.39
69009;SHT31;56065;52.472;13.380;2023-04-03T03:01:23;2.07;74.16
69009;SHT31;56065;52.472;13.380;2023-04-03T03:03:48;2.01;74.41
69009;SHT31;56065;52.472;13.380;2023-04-03T03:06:15;2.02;74.62
69009;SHT31;56065;52.472;13.380;2023-04-03T03:08:41;1.96;74.96
69009;SHT31;56065;52.472;13.380;2023-04-03T03:11:07;1.92;74.67
69009;SHT31;56065;52.472;13.380;2023-04-03T03:13:33;1.82;75.21
69009;SHT31;56065;52.472;13.380;2023-04-03T03:15:58;1.78;75.24
69009;SHT31;56065;52.472;13.380;2023-04-03T03:18:24;1.72;75.95
69009;SHT31;56065;52.472;13.380;2023-04-03T03:20:57;1.71;75.50
69009;SHT31;56065;52.472;13.380;2023-04-03T03:23:24;1.69;75.40
69009;SHT31;56065;52.472;13.380;2023-04-03T03:25:54;1.62;75.91
69009;SHT31;56065;52.472;13.380;2023-04-03T03:28:20;1.56;76.31
69009;SHT31;56065;52.472;13.380;2023-04-03T03:30:45;1.54;76.22
69009;SHT31;56065;52.472;13.380;2023-04-03T03:33:10;1.54;76.22
69009;SHT31;56065;52.472;13.380;2023-04-03T03:35:36;1.48;76.17
69009;SHT31;56065;52.472;13.380;2023-04-03T03:38:01;1.50;76.16
69009;SHT31;56065;52.472;13.380;2023-04-03T03:40:27;1.58;76.07
69009;SHT31;56065;52.472;13.380;2023-04-03T03:42:52;1.51;76.15
69009;SHT31;56065;52.472;13.380;2023-04-03T03:45:17;1.48;76.04
69009;SHT31;56065;52.472;13.380;2023-04-03T03:47:43;1.45;76.67
69009;SHT31;56065;52.472;13.380;2023-04-03T03:50:08;1.45;76.60
69009;SHT31;56065;52.472;13.380;2023-04-03T03:52:34;1.40;76.80
69009;SHT31;56065;52.472;13.380;2023-04-03T03:54:59;1.43;76.63
69009;SHT31;56065;52.472;13.380;2023-04-03T03:57:24;1.43;76.70
69009;SHT31;56065;52.472;13.380;2023-04-03T03:59:52;1.43;76.76
69009;SHT31;56065;52.472;13.380;2023-04-03T04:02:17;1.37;76.91
69009;SHT31;56065;52.472;13.380;2023-04-03T04:04:43;1.43;76.23
69009;SHT31;56065;52.472;13.380;2023-04-03T04:07:08;1.33;76.79
69009;SHT31;56065;52.472;13.380;2023-04-03T04:09:33;1.35;76.63
69009;SHT31;56065;52.472;13.380;2023-04-03T04:11:59;1.35;76.73
69009;SHT31;56065;52.472;13.380;2023-04-03T04:14:24;1.33;77.00
69009;SHT31;56065;52.472;13.380;2023-04-03T04:16:50;1.35;77.32
69009;SHT31;56065;52.472;13.380;2023-04-03T04:19:15;1.30;77.48
69009;SHT31;56065;52.472;13.380;2023-04-03T04:21:41;1.35;77.16
69009;SHT31;56065;52.472;13.380;2023-04-03T04:24:07;1.37;77.08
69009;SHT31;56065;52.472;13.380;2023-04-03T04:26:33;1.34;77.05
69009;SHT31;56065;52.472;13.380;2023-04-03T04:28:58;1.37;76.86
69009;SHT31;56065;52.472;13.380;2023-04-03T04:31:24;1.40;77.17
69009;SHT31;56065;52.472;13.380;2023-04-03T04:33:49;1.30;77.65
69009;SHT31;56065;52.472;13.380;2023-04-03T04:36:14;1.20;77.90
69009;SHT31;56065;52.472;13.380;2023-04-03T04:38:40;1.28;77.83
69009;SHT31;56065;52.472;13.380;2023-04-03T04:41:06;1.24;78.02
69009;SHT31;56065;52.472;13.380;2023-04-03T04:43:32;1.31;77.77
69009;SHT31;56065;52.472;13.380;2023-04-03T04:46:07;1.37;77.54
69009;SHT31;56065;52.472;13.380;2023-04-03T04:48:34;1.43;77.38
69009;SHT31;56065;52.472;13.380;2023-04-03T04:50:59;1.45;77.01
69009;SHT31;56065;52.472;13.380;2023-04-03T04:53:25;1.44;77.42
69009;SHT31;56065;52.472;13.380;2023-04-03T04:55:51;1.37;77.55
69009;SHT31;56065;52.472;13.380;2023-04-03T04:58:17;1.41;77.86
69009;SHT31;56065;52.472;13.380;2023-04-03T05:00:42;1.50;77.47
69009;SHT31;56065;52.472;13.380;2023-04-03T05:03:08;1.52;77.45
69009;SHT31;56065;52.472;13.380;2023-04-03T05:05:33;1.52;77.39
69009;SHT31;56065;52.472;13.380;2023-04-03T05:07:59;1.43;78.01
69009;SHT31;56065;52.472;13.380;2023-04-03T05:10:24;1.51;77.64
69009;SHT31;56065;52.472;13.380;2023-04-03T05:12:50;1.61;77.26
69009;SHT31;56065;52.472;13.380;2023-04-03T05:15:15;1.64;77.56
69009;SHT31;56065;52.472;13.380;2023-04-03T05:17:41;1.72;77.80
69009;SHT31;56065;52.472;13.380;2023-04-03T05:20:07;1.76;77.31
69009;SHT31;56065;52.472;13.380;2023-04-03T05:22:32;1.78;77.18
69009;SHT31;56065;52.472;13.380;2023-04-03T05:24:57;1.87;77.26
69009;SHT31;56065;52.472;13.380;2023-04-03T05:27:23;1.95;77.22
69009;SHT31;56065;52.472;13.380;2023-04-03T05:29:49;2.01;76.82
69009;SHT31;56065;52.472;13.380;2023-04-03T05:32:15;2.12;76.77
69009;SHT31;56065;52.472;13.380;2023-04-03T05:34:40;2.15;76.61
69009;SHT31;56065;52.472;13.380;2023-04-03T05:37:06;2.23;76.42
69009;SHT31;56065;52.472;13.380;2023-04-03T05:39:31;2.34;76.10
69009;SHT31;56065;52.472;13.380;2023-04-03T05:41:57;2.40;76.01
69009;SHT31;56065;52.472;13.380;2023-04-03T05:44:22;2.51;75.81
69009;SHT31;56065;52.472;13.380;2023-04-03T05:46:47;2.51;75.79
69009;SHT31;56065;52.472;13.380;2023-04-03T05:49:13;3.23;75.65
69009;SHT31;56065;52.472;13.380;2023-04-03T05:51:38;4.72;72.90
69009;SHT31;56065;52.472;13.380;2023-04-03T05:54:26;6.47;68.69
69009;SHT31;56065;52.472;13.380;2023-04-03T05:56:52;7.84;65.55
69009;SHT31;56065;52.472;13.380;2023-04-03T05:59:18;8.88;63.10
69009;SHT31;56065;52.472;13.380;2023-04-03T06:01:45;9.76;61.00
69009;SHT31;56065;52.472;13.380;2023-04-03T06:04:10;10.60;59.13
69009;SHT31;56065;52.472;13.380;2023-04-03T06:06:48;11.44;57.15
69009;SHT31;56065;52.472;13.380;2023-04-03T06:09:15;12.06;54.57
69009;SHT31;56065;52.472;13.380;2023-04-03T06:11:41;12.75;53.59
69009;SHT31;56065;52.472;13.380;2023-04-03T06:14:07;12.93;51.86
69009;SHT31;56065;52.472;13.380;2023-04-03T06:16:33;13.59;51.72
69009;SHT31;56065;52.472;13.380;2023-04-03T06:18:59;13.85;49.85
69009;SHT31;56065;52.472;13.380;2023-04-03T06:21:24;13.65;47.75
69009;SHT31;56065;52.472;13.380;2023-04-03T06:23:50;14.40;47.99
69009;SHT31;56065;52.472;13.380;2023-04-03T06:26:16;15.16;47.45
69009;SHT31;56065;52.472;13.380;2023-04-03T06:28:42;15.76;47.08
69009;SHT31;56065;52.472;13.380;2023-04-03T06:31:07;16.13;45.35
69009;SHT31;56065;52.472;13.380;2023-04-03T06:33:34;16.35;45.24
69009;SHT31;56065;52.472;13.380;2023-04-03T06:35:59;16.77;44.32
69009;SHT31;56065;52.472;13.380;2023-04-03T06:38:25;17.07;43.49
69009;SHT31;56065;52.472;13.380;2023-04-03T06:40:51;16.82;42.20
69009;SHT31;56065;52.472;13.380;2023-04-03T06:43:17;17.73;43.11
69009;SHT31;56065;52.472;13.380;2023-04-03T06:45:42;18.37;41.75
69009;SHT31;56065;52.472;13.380;2023-04-03T06:48:08;19.00;41.19
69009;SHT31;56065;52.472;13.380;2023-04-03T06:50:33;19.11;40.11
69009;SHT31;56065;52.472;13.380;2023-04-03T06:52:58;19.67;40.41
69009;SHT31;56065;52.472;13.380;2023-04-03T06:55:24;20.20;39.17
69009;SHT31;56065;52.472;13.380;2023-04-03T06:57:49;20.23;38.60
69009;SHT31;56065;52.472;13.380;2023-04-03T07:00:15;20.64;37.79
69009;SHT31;56065;52.472;13.380;2023-04-03T07:02:41;20.86;36.47
69009;SHT31;56065;52.472;13.380;2023-04-03T07:05:07;20.91;36.48
69009;SHT31;56065;52.472;13.380;2023-04-03T07:07:34;21.33;36.62
69009;SHT31;56065;52.472;13.380;2023-04-03T07:10:00;21.43;35.56
69009;SHT31;56065;52.472;13.380;2023-04-03T07:12:25;21.90;35.33
69009;SHT31;56065;52.472;13.380;2023-04-03T07:14:51;21.87;34.25
69009;SHT31;56065;52.472;13.380;2023-04-03T07:17:16;22.16;34.39
69009;SHT31;56065;52.472;13.380;2023-04-03T07:19:42;22.08;34.38
69009;SHT31;56065;52.472;13.380;2023-04-03T07:22:07;21.64;33.54
69009;SHT31;56065;52.472;13.380;2023-04-03T07:24:33;21.32;34.75
69009;SHT31;56065;52.472;13.380;2023-04-03T07:26:58;21.60;33.74
69009;SHT31;56065;52.472;13.380;2023-04-03T07:29:24;21.68;34.16
69009;SHT31;56065;52.472;13.380;2023-04-03T07:31:49;21.39;33.84
69009;SHT31;56065;52.472;13.380;2023-04-03T07:34:14;20.89;34.18
69009;SHT31;56065;52.472;13.380;2023-04-03T07:36:40;21.10;34.67
69009;SHT31;56065;52.472;13.380;2023-04-03T07:39:06;19.90;34.87
69009;SHT31;56065;52.472;13.380;2023-04-03T07:41:33;18.94;35.96
69009;SHT31;56065;52.472;13.380;2023-04-03T07:43:58;18.45;36.58
69009;SHT31;56065;52.472;13.380;2023-04-03T07:46:24;17.61;36.77
69009;SHT31;56065;52.472;13.380;2023-04-03T07:48:49;16.05;37.93
69009;SHT31;56065;52.472;13.380;2023-04-03T07:51:15;16.20;39.21
69009;SHT31;56065;52.472;13.380;2023-04-03T07:53:41;16.11;38.97
69009;SHT31;56065;52.472;13.380;2023-04-03T07:56:07;15.53;39.72
69009;SHT31;56065;52.472;13.380;2023-04-03T07:58:33;14.95;40.97
69009;SHT31;56065;52.472;13.380;2023-04-03T08:00:59;14.50;41.06
69009;SHT31;56065;52.472;13.380;2023-04-03T08:03:25;13.81;41.81
69009;SHT31;56065;52.472;13.380;2023-04-03T08:05:51;14.09;41.58
69009;SHT31;56065;52.472;13.380;2023-04-03T08:08:20;13.74;41.69
69009;SHT31;56065;52.472;13.380;2023-04-03T08:10:53;12.70;42.33
69009;SHT31;56065;52.472;13.380;2023-04-03T08:13:19;12.11;43.65
69009;SHT31;56065;52.472;13.380;2023-04-03T08:15:45;11.08;44.58
69009;SHT31;56065;52.472;13.380;2023-04-03T08:18:11;10.85;45.83
69009;SHT31;56065;52.472;13.380;2023-04-03T08:20:37;10.61;47.28
69009;SHT31;56065;52.472;13.380;2023-04-03T08:23:03;11.34;46.74
69009;SHT31;56065;52.472;13.380;2023-04-03T08:25:29;11.80;46.24
69009;SHT31;56065;52.472;13.380;2023-04-03T08:27:55;11.73;46.06
69009;SHT31;56065;52.472;13.380;2023-04-03T08:30:20;11.54;46.15
69009;SHT31;56065;52.472;13.380;2023-04-03T08:32:45;11.49;46.31
69009;SHT31;56065;52.472;13.380;2023-04-03T08:35:11;11.15;46.86
69009;SHT31;56065;52.472;13.380;2023-04-03T08:37:38;11.01;47.47
69009;SHT31;56065;52.472;13.380;2023-04-03T08:40:05;10.82;47.64
69009;SHT31;56065;52.472;13.380;2023-04-03T08:45:12;10.47;48.56
69009;SHT31;56065;52.472;13.380;2023-04-03T08:47:44;10.38;48.32
69009;SHT31;56065;52.472;13.380;2023-04-03T08:50:28;10.18;48.74
69009;SHT31;56065;52.472;13.380;2023-04-03T08:52:58;10.06;49.13
69009;SHT31;56065;52.472;13.380;2023-04-03T08:55:26;10.09;49.50
69009;SHT31;56065;52.472;13.380;2023-04-03T08:58:04;9.99;48.50
69009;SHT31;56065;52.472;13.380;2023-04-03T09:00:51;9.69;49.73
69009;SHT31;56065;52.472;13.380;2023-04-03T09:03:20;9.55;50.52
69009;SHT31;56065;52.472;13.380;2023-04-03T09:08:32;9.76;49.82
69009;SHT31;56065;52.472;13.380;2023-04-03T09:13:59;9.51;49.06
69009;SHT31;56065;52.472;13.380;2023-04-03T09:16:43;9.61;48.98
69009;SHT31;56065;52.472;13.380;2023-04-03T09:21:45;11.05;47.98
69009;SHT31;56065;52.472;13.380;2023-04-03T09:24:13;12.82;44.42
69009;SHT31;56065;52.472;13.380;2023-04-03T09:26:52;14.08;42.63
69009;SHT31;56065;52.472;13.380;2023-04-03T09:29:19;14.81;41.79
69009;SHT31;56065;52.472;13.380;2023-04-03T09:31:48;14.46;41.69
69009;SHT31;56065;52.472;13.380;2023-04-03T09:34:23;13.74;40.51
69009;SHT31;56065;52.472;13.380;2023-04-03T09:36:53;14.13;40.79
69009;SHT31;56065;52.472;13.380;2023-04-03T09:39:21;13.78;40.84
69009;SHT31;56065;52.472;13.380;2023-04-03T09:44:26;17.10;38.05
69009;SHT31;56065;52.472;13.380;2023-04-03T09:46:52;18.45;35.84
69009;SHT31;56065;52.472;13.380;2023-04-03T09:49:18;18.70;35.53
69009;SHT31;56065;52.472;13.380;2023-04-03T09:51:45;18.39;35.41
69009;SHT31;56065;52.472;13.380;2023-04-03T09:54:37;17.70;35.30
69009;SHT31;56065;52.472;13.380;2023-04-03T09:57:09;16.38;35.96
69009;SHT31;56065;52.472;13.380;2023-04-03T09:59:57;15.31;37.59
69009;SHT31;56065;52.472;13.380;2023-04-03T10:02:33;14.51;39.52
69009;SHT31;56065;52.472;13.380;2023-04-03T10:04:59;13.53;39.14
69009;SHT31;56065;52.472;13.380;2023-04-03T10:07:30;12.86;40.19
69009;SHT31;56065;52.472;13.380;2023-04-03T10:10:01;12.52;41.52
69009;SHT31;56065;52.472;13.380;2023-04-03T10:12:28;12.41;42.45
69009;SHT31;56065;52.472;13.380;2023-04-03T10:15:00;12.22;42.50
69009;SHT31;56065;52.472;13.380;2023-04-03T10:23:01;12.49;45.09
69009;SHT31;56065;52.472;13.380;2023-04-03T10:26:01;12.39;43.35
69009;SHT31;56065;52.472;13.380;2023-04-03T10:28:36;12.18;44.12
69009;SHT31;56065;52.472;13.380;2023-04-03T10:36:54;11.63;43.24
69009;SHT31;56065;52.472;13.380;2023-04-03T10:50:22;12.55;43.59
69009;SHT31;56065;52.472;13.380;2023-04-03T10:53:21;12.92;41.90
69009;SHT31;56065;52.472;13.380;2023-04-03T10:58:28;12.94;41.30
69009;SHT31;56065;52.472;13.380;2023-04-03T11:00:57;12.66;41.97
69009;SHT31;56065;52.472;13.380;2023-04-03T11:03:33;12.60;43.22
69009;SHT31;56065;52.472;13.380;2023-04-03T11:06:02;12.84;42.59
69009;SHT31;56065;52.472;13.380;2023-04-03T11:11:13;13.03;42.39
69009;SHT31;56065;52.472;13.380;2023-04-03T11:13:45;13.13;42.34
69009;SHT31;56065;52.472;13.380;2023-04-03T11:16:20;12.69;41.35
69009;SHT31;56065;52.472;13.380;2023-04-03T11:18:59;12.48;42.30
69009;SHT31;56065;52.472;13.380;2023-04-03T11:21:34;12.26;42.66
69009;SHT31;56065;52.472;13.380;2023-04-03T11:24:05;12.12;44.03
69009;SHT31;56065;52.472;13.380;2023-04-03T11:26:37;12.11;43.43
69009;SHT31;56065;52.472;13.380;2023-04-03T11:29:10;12.14;44.01
69009;SHT31;56065;52.472;13.380;2023-04-03T11:34:36;12.48;43.04
69009;SHT31;56065;52.472;13.380;2023-04-03T11:37:23;12.66;43.44
69009;SHT31;56065;52.472;13.380;2023-04-03T11:39:56;12.70;42.79
69009;SHT31;56065;52.472;13.380;2023-04-03T11:42:24;12.62;43.27
69009;SHT31;56065;52.472;13.380;2023-04-03T11:47:45;12.36;44.13
69009;SHT31;56065;52.472;13.380;2023-04-03T11:50:50;12.36;44.26
69009;SHT31;56065;52.472;13.380;2023-04-03T11:53:25;12.57;44.05
69009;SHT31;56065;52.472;13.380;2023-04-03T11:55:54;12.75;44.12
69009;SHT31;56065;52.472;13.380;2023-04-03T11:58:34;12.79;43.56
69009;SHT31;56065;52.472;13.380;2023-04-03T12:01:08;13.04;43.31
69009;SHT31;56065;52.472;13.380;2023-04-03T12:26:49;14.01;42.57
69009;SHT31;56065;52.472;13.380;2023-04-03T12:29:23;13.98;41.54
69009;SHT31;56065;52.472;13.380;2023-04-03T12:48:20;11.91;44.01
69009;SHT31;56065;52.472;13.380;2023-04-03T12:50:49;11.90;44.22
69009;SHT31;56065;52.472;13.380;2023-04-03T12:55:40;12.36;43.43
69009;SHT31;56065;52.472;13.380;2023-04-03T12:58:22;12.28;43.15
69009;SHT31;56065;52.472;13.380;2023-04-03T13:01:02;12.01;42.86
69009;SHT31;56065;52.472;13.380;2023-04-03T13:03:28;11.81;43.40
69009;SHT31;56065;52.472;13.380;2023-04-03T13:05:58;11.62;44.11
69009;SHT31;56065;52.472;13.380;2023-04-03T13:08:25;11.57;43.51
69009;SHT31;56065;52.472;13.380;2023-04-03T13:11:07;11.94;43.97
69009;SHT31;56065;52.472;13.380;2023-04-03T13:13:35;11.93;44.22
69009;SHT31;56065;52.472;13.380;2023-04-03T13:16:11;12.06;44.24
69009;SHT31;56065;52.472;13.380;2023-04-03T13:18:37;12.01;43.85
69009;SHT31;56065;52.472;13.380;2023-04-03T13:21:07;12.06;43.97
69009;SHT31;56065;52.472;13.380;2023-04-03T13:23:40;12.06;45.08
69009;SHT31;56065;52.472;13.380;2023-04-03T13:26:08;12.05;44.45
69009;SHT31;56065;52.472;13.380;2023-04-03T13:28:34;12.02;44.46
69009;SHT31;56065;52.472;13.380;2023-04-03T13:31:19;11.98;44.55
69009;SHT31;56065;52.472;13.380;2023-04-03T13:33:54;11.80;45.11
69009;SHT31;56065;52.472;13.380;2023-04-03T13:36:22;11.70;45.50
69009;SHT31;56065;52.472;13.380;2023-04-03T13:39:18;11.69;45.49
69009;SHT31;56065;52.472;13.380;2023-04-03T13:41:58;11.53;45.57
69009;SHT31;56065;52.472;13.380;2023-04-03T13:44:42;11.37;45.60
69009;SHT31;56065;52.472;13.380;2023-04-03T13:49:38;11.05;46.03
69009;SHT31;56065;52.472;13.380;2023-04-03T13:52:25;10.89;46.43
69009;SHT31;56065;52.472;13.380;2023-04-03T13:54:57;10.91;46.58
69009;SHT31;56065;52.472;13.380;2023-04-03T13:57:23;10.86;47.27
69009;SHT31;56065;52.472;13.380;2023-04-03T13:59:50;10.81;46.49
69009;SHT31;56065;52.472;13.380;2023-04-03T14:02:28;10.57;46.81
69009;SHT31;56065;52.472;13.380;2023-04-03T14:04:56;10.45;47.53
69009;SHT31;56065;52.472;13.380;2023-04-03T14:07:25;10.36;47.41
69009;SHT31;56065;52.472;13.380;2023-04-03T14:09:50;10.50;48.32
69009;SHT31;56065;52.472;13.380;2023-04-03T14:12:28;10.58;48.25
69009;SHT31;56065;52.472;13.380;2023-04-03T14:14:55;10.47;47.78
69009;SHT31;56065;52.472;13.380;2023-04-03T14:17:23;10.67;47.61
69009;SHT31;56065;52.472;13.380;2023-04-03T14:19:51;10.76;47.75
69009;SHT31;56065;52.472;13.380;2023-04-03T14:22:26;10.84;47.73
69009;SHT31;56065;52.472;13.380;2023-04-03T14:24:53;11.03;47.16
69009;SHT31;56065;52.472;13.380;2023-04-03T14:27:34;11.27;47.59
69009;SHT31;56065;52.472;13.380;2023-04-03T14:30:00;11.36;46.86
69009;SHT31;56065;52.472;13.380;2023-04-03T14:32:28;11.30;46.44
69009;SHT31;56065;52.472;13.380;2023-04-03T14:34:54;11.19;47.12
69009;SHT31;56065;52.472;13.380;2023-04-03T14:37:23;10.89;46.95
69009;SHT31;56065;52.472;13.380;2023-04-03T14:39:51;10.64;46.99
69009;SHT31;56065;52.472;13.380;2023-04-03T14:42:21;11.22;47.38
69009;SHT31;56065;52.472;13.380;2023-04-03T14:44:46;12.24;46.91
69009;SHT31;56065;52.472;13.380;2023-04-03T14:47:15;12.62;44.89
69009;SHT31;56065;52.472;13.380;2023-04-03T14:49:41;12.66;44.41
69009;SHT31;56065;52.472;13.380;2023-04-03T14:52:21;12.45;44.10
69009;SHT31;56065;52.472;13.380;2023-04-03T14:54:48;12.28;44.31
69009;SHT31;56065;52.472;13.380;2023-04-03T14:57:14;11.85;44.79
69009;SHT31;56065;52.472;13.380;2023-04-03T14:59:40;11.46;46.10
69009;SHT31;56065;52.472;13.380;2023-04-03T15:02:28;11.15;46.32
69009;SHT31;56065;52.472;13.380;2023-04-03T15:04:58;10.82;46.91
69009;SHT31;56065;52.472;13.380;2023-04-03T15:07:26;10.34;47.45
69009;SHT31;56065;52.472;13.380;2023-04-03T15:09:52;10.33;48.00
69009;SHT31;56065;52.472;13.380;2023-04-03T15:12:17;10.06;48.86
69009;SHT31;56065;52.472;13.380;2023-04-03T15:14:43;9.79;49.43
69009;SHT31;56065;52.472;13.380;2023-04-03T15:17:16;9.75;50.57
69009;SHT31;56065;52.472;13.380;2023-04-03T15:19:42;9.73;50.24
69009;SHT31;56065;52.472;13.380;2023-04-03T15:22:13;9.58;51.36
69009;SHT31;56065;52.472;13.380;2023-04-03T15:24:39;9.30;51.20
69009;SHT31;56065;52.472;13.380;2023-04-03T15:27:05;9.25;51.28
69009;SHT31;56065;52.472;13.380;2023-04-03T15:29:30;9.20;51.37
69009;SHT31;56065;52.472;13.380;2023-04-03T15:31:55;9.07;52.27
69009;SHT31;56065;52.472;13.380;2023-04-03T15:34:21;8.84;52.82
69009;SHT31;56065;52.472;13.380;2023-04-03T15:36:46;8.72;52.97
69009;SHT31;56065;52.472;13.380;2023-04-03T15:39:12;8.73;53.19
69009;SHT31;56065;52.472;13.380;2023-04-03T15:41:37;8.59;53.27
69009;SHT31;56065;52.472;13.380;2023-04-03T15:44:02;8.42;54.14
69009;SHT31;56065;52.472;13.380;2023-04-03T15:46:28;8.41;53.52
69009;SHT31;56065;52.472;13.380;2023-04-03T15:48:53;8.43;53.55
69009;SHT31;56065;52.472;13.380;2023-04-03T15:51:18;8.50;53.94
69009;SHT31;56065;52.472;13.380;2023-04-03T15:53:44;8.49;53.95
69009;SHT31;56065;52.472;13.380;2023-04-03T15:56:09;8.52;54.11
69009;SHT31;56065;52.472;13.380;2023-04-03T15:58:36;8.50;53.88
69009;SHT31;56065;52.472;13.380;2023-04-03T16:01:02;8.39;53.71
69009;SHT31;56065;52.472;13.380;2023-04-03T16:03:27;8.52;53.69
69009;SHT31;56065;52.472;13.380;2023-04-03T16:05:53;8.49;53.55
69009;SHT31;56065;52.472;13.380;2023-04-03T16:08:19;8.45;53.05
69009;SHT31;56065;52.472;13.380;2023-04-03T16:10:44;8.38;53.23
69009;SHT31;56065;52.472;13.380;2023-04-03T16:13:11;8.21;53.30
69009;SHT31;56065;52.472;13.380;2023-04-03T16:15:37;8.05;53.50
69009;SHT31;56065;52.472;13.380;2023-04-03T16:18:03;7.82;54.14
69009;SHT31;56065;52.472;13.380;2023-04-03T16:20:29;7.69;54.98
69009;SHT31;56065;52.472;13.380;2023-04-03T16:22:57;7.85;55.25
69009;SHT31;56065;52.472;13.380;2023-04-03T16:25:24;8.18;54.51
69009;SHT31;56065;52.472;13.380;2023-04-03T16:27:49;8.53;54.23
69009;SHT31;56065;52.472;13.380;2023-04-03T16:30:15;8.73;53.99
69009;SHT31;56065;52.472;13.380;2023-04-03T16:32:40;8.93;53.09
69009;SHT31;56065;52.472;13.380;2023-04-03T16:35:06;8.97;53.03
69009;SHT31;56065;52.472;13.380;2023-04-03T16:37:32;9.01;53.34
69009;SHT31;56065;52.472;13.380;2023-04-03T16:39:57;9.04;53.41
69009;SHT31;56065;52.472;13.380;2023-04-03T16:42:24;8.99;52.85
69009;SHT31;56065;52.472;13.380;2023-04-03T16:44:49;8.81;53.01
69009;SHT31;56065;52.472;13.380;2023-04-03T16:47:14;8.50;52.77
69009;SHT31;56065;52.472;13.380;2023-04-03T16:49:44;8.45;53.16
69009;SHT31;56065;52.472;13.380;2023-04-03T16:52:09;8.33;53.53
69009;SHT31;56065;52.472;13.380;2023-04-03T16:54:34;8.25;54.43
69009;SHT31;56065;52.472;13.380;2023-04-03T16:57:00;8.09;54.69
69009;SHT31;56065;52.472;13.380;2023-04-03T16:59:25;8.04;55.07
69009;SHT31;56065;52.472;13.380;2023-04-03T17:01:51;7.98;54.82
69009;SHT31;56065;52.472;13.380;2023-04-03T17:04:16;7.87;55.44
69009;SHT31;56065;52.472;13.380;2023-04-03T17:06:42;7.74;55.69